Time;durP1;ratioP1;P1;durP2;ratioP2;P2;SDS_P1;SDS_P2;PMS_P1;PMS_P2;Temp;Humidity;BMP_temperature;BMP_pressure;BME280_temperature;BME280_humidity;BME280_pressure;Samples;Min_cycle;Max_cycle;Signal;HPM_P1;HPM_P2
2023/03/16 00:00:12;;;;;;;5.45;2.63;;;;;;;;;;5055709;28;20049;-76
2023/03/16 00:02:38;;;;;;;8.75;3.13;;;;;;;;;;5055060;28;20454;-76
2023/03/16 00:05:04;;;;;;;5.20;2.85;;;;;;;;;;5041400;28;20091;-76
2023/03/16 00:07:31;;;;;;;8.02;2.90;;;;;;;;;;5050110;28;20079;-76
2023/03/16 00:09:57;;;;;;;6.82;2.97;;;;;;;;;;5069644;28;20051;-76
2023/03/16 00:12:24;;;;;;;6.30;2.97;;;;;;;;;;5062680;28;20053;-76
2023/03/16 00:14:50;;;;;;;8.77;2.70;;;;;;;;;;5062715;28;20053;-76
2023/03/16 00:17:18;;;;;;;6.50;2.95;;;;;;;;;;5072811;28;20489;-77
2023/03/16 00:19:45;;;;;;;8.80;3.13;;;;;;;;;;5048971;28;20036;-76
2023/03/16 00:22:13;;;;;;;5.40;2.85;;;;;;;;;;5068431;28;20056;-76
2023/03/16 00:24:42;;;;;;;8.10;2.95;;;;;;;;;;5059269;28;20055;-76
2023/03/16 00:27:13;;;;;;;7.55;3.17;;;;;;;;;;5071673;28;20048;-76
2023/03/16 00:29:46;;;;;;;8.18;2.90;;;;;;;;;;5056787;28;20041;-77
2023/03/16 00:32:13;;;;;;;10.13;2.88;;;;;;;;;;5070333;28;20044;-74
2023/03/16 00:34:39;;;;;;;7.63;3.05;;;;;;;;;;5061089;28;20040;-74
2023/03/16 00:37:05;;;;;;;9.55;3.40;;;;;;;;;;5068177;28;20041;-75
2023/03/16 00:39:34;;;;;;;10.82;3.28;;;;;;;;;;5048005;28;20040;-74
2023/03/16 00:42:01;;;;;;;9.35;3.50;;;;;;;;;;5072597;28;20048;-75
2023/03/16 00:44:28;;;;;;;6.40;2.97;;;;;;;;;;5072580;28;20119;-75
2023/03/16 00:46:54;;;;;;;7.13;3.05;;;;;;;;;;5072610;28;20048;-75
2023/03/16 00:49:21;;;;;;;7.32;3.40;;;;;;;;;;5071210;28;20101;-75
2023/03/16 00:51:47;;;;;;;8.25;3.13;;;;;;;;;;5038064;28;20480;-75
2023/03/16 00:54:13;;;;;;;8.02;2.88;;;;;;;;;;5014700;28;20077;-75
2023/03/16 00:56:41;;;;;;;7.00;3.08;;;;;;;;;;5034617;28;20080;-75
2023/03/16 00:59:08;;;;;;;8.45;3.00;;;;;;;;;;5034433;28;20045;-75
2023/03/16 01:01:34;;;;;;;7.03;3.05;;;;;;;;;;5034583;28;20493;-75
2023/03/16 01:04:00;;;;;;;7.90;3.20;;;;;;;;;;5034159;28;20055;-75
2023/03/16 01:06:26;;;;;;;8.95;3.00;;;;;;;;;;5052188;28;20056;-75
2023/03/16 01:08:52;;;;;;;6.95;2.95;;;;;;;;;;5033900;28;20129;-75
2023/03/16 01:11:20;;;;;;;6.03;3.08;;;;;;;;;;5034797;28;20081;-74
2023/03/16 01:13:47;;;;;;;6.40;2.85;;;;;;;;;;5062254;28;20076;-75
2023/03/16 01:16:13;;;;;;;7.95;3.10;;;;;;;;;;5056552;28;20056;-75
2023/03/16 01:18:40;;;;;;;7.30;2.90;;;;;;;;;;5059565;28;20041;-75
2023/03/16 01:21:07;;;;;;;8.10;3.17;;;;;;;;;;5031319;28;20048;-75
2023/03/16 01:23:34;;;;;;;7.25;3.30;;;;;;;;;;5036700;28;20081;-75
2023/03/16 01:26:01;;;;;;;6.85;3.35;;;;;;;;;;5062324;28;20049;-75
2023/03/16 01:28:28;;;;;;;6.18;2.90;;;;;;;;;;5035174;28;20447;-75
2023/03/16 01:31:01;;;;;;;8.30;3.38;;;;;;;;;;5068652;28;20461;-76
2023/03/16 01:33:27;;;;;;;9.43;3.50;;;;;;;;;;5066407;28;20048;-75
2023/03/16 01:35:58;;;;;;;6.97;3.20;;;;;;;;;;5061828;28;20106;-74
2023/03/16 01:38:24;;;;;;;9.32;3.65;;;;;;;;;;5038562;28;20063;-75
2023/03/16 01:40:51;;;;;;;9.60;3.35;;;;;;;;;;5068488;28;20048;-75
2023/03/16 01:43:18;;;;;;;6.63;3.40;;;;;;;;;;5050650;28;20044;-75
2023/03/16 01:45:59;;;;;;;6.78;3.40;;;;;;;;;;5033802;28;20538;-75
2023/03/16 01:48:26;;;;;;;7.70;3.60;;;;;;;;;;5033756;28;20048;-75
2023/03/16 01:50:52;;;;;;;7.93;3.72;;;;;;;;;;5033803;28;20041;-75
2023/03/16 01:53:20;;;;;;;7.43;3.70;;;;;;;;;;5051627;28;20052;-75
2023/03/16 01:55:47;;;;;;;8.93;4.03;;;;;;;;;;5057377;28;20591;-75
2023/03/16 01:58:13;;;;;;;7.50;3.47;;;;;;;;;;5071624;28;20044;-75
2023/03/16 02:00:40;;;;;;;8.25;3.75;;;;;;;;;;5053773;28;20389;-75
2023/03/16 02:03:14;;;;;;;7.13;3.80;;;;;;;;;;5035003;28;20048;-75
2023/03/16 02:05:41;;;;;;;8.75;4.05;;;;;;;;;;5073043;28;20037;-75
2023/03/16 02:08:07;;;;;;;7.30;3.40;;;;;;;;;;5054107;28;20087;-75
2023/03/16 02:10:34;;;;;;;7.85;3.72;;;;;;;;;;5051765;28;20045;-75
2023/03/16 02:13:01;;;;;;;7.80;3.88;;;;;;;;;;5052842;28;20155;-75
2023/03/16 02:15:27;;;;;;;8.02;3.88;;;;;;;;;;5043501;28;20045;-75
2023/03/16 02:17:53;;;;;;;6.85;3.45;;;;;;;;;;5057865;28;20053;-75
2023/03/16 02:20:22;;;;;;;8.25;3.95;;;;;;;;;;5064699;28;20041;-75
2023/03/16 02:22:52;;;;;;;6.90;3.92;;;;;;;;;;5044122;28;20044;-75
2023/03/16 02:25:20;;;;;;;7.50;3.90;;;;;;;;;;5053272;28;20041;-75
2023/03/16 02:28:01;;;;;;;7.85;3.95;;;;;;;;;;5037232;28;20094;-75
2023/03/16 02:30:27;;;;;;;9.35;4.47;;;;;;;;;;5052800;28;20060;-75
2023/03/16 02:32:54;;;;;;;9.43;4.20;;;;;;;;;;5052847;28;20435;-75
2023/03/16 02:35:20;;;;;;;7.43;4.30;;;;;;;;;;5040999;28;20370;-75
2023/03/16 02:37:46;;;;;;;13.18;4.72;;;;;;;;;;5049770;28;20047;-75
2023/03/16 02:40:31;;;;;;;9.07;4.72;;;;;;;;;;5035732;28;20052;-75
2023/03/16 02:43:03;;;;;;;6.97;4.50;;;;;;;;;;5043649;28;20091;-75
2023/03/16 02:45:39;;;;;;;8.80;4.50;;;;;;;;;;5054481;28;20382;-75
2023/03/16 02:48:07;;;;;;;9.15;4.47;;;;;;;;;;5035537;28;20084;-75
2023/03/16 02:50:33;;;;;;;8.65;4.43;;;;;;;;;;5033181;28;20096;-75
2023/03/16 02:52:59;;;;;;;10.65;4.90;;;;;;;;;;5033258;28;20490;-74
2023/03/16 02:55:25;;;;;;;8.70;4.72;;;;;;;;;;5034395;28;20049;-75
2023/03/16 02:57:51;;;;;;;8.65;4.85;;;;;;;;;;5032788;28;20041;-74
2023/03/16 03:00:18;;;;;;;10.43;4.60;;;;;;;;;;5052506;28;20044;-75
2023/03/16 03:02:47;;;;;;;7.43;4.40;;;;;;;;;;5054206;28;20511;-75
2023/03/16 03:05:13;;;;;;;9.60;4.85;;;;;;;;;;5054004;28;20477;-75
2023/03/16 03:07:39;;;;;;;9.48;4.75;;;;;;;;;;5057246;28;20405;-75
2023/03/16 03:10:05;;;;;;;7.95;4.15;;;;;;;;;;5074027;28;20052;-75
2023/03/16 03:12:32;;;;;;;8.55;5.00;;;;;;;;;;5073879;28;20045;-75
2023/03/16 03:14:59;;;;;;;7.22;4.93;;;;;;;;;;5055610;28;20087;-75
2023/03/16 03:17:31;;;;;;;8.88;4.63;;;;;;;;;;5029903;28;20402;-75
2023/03/16 03:19:57;;;;;;;9.35;4.70;;;;;;;;;;5063265;28;20044;-77
2023/03/16 03:22:25;;;;;;;7.38;4.50;;;;;;;;;;5056479;28;20045;-75
2023/03/16 03:24:51;;;;;;;7.47;4.47;;;;;;;;;;5067930;28;20052;-77
2023/03/16 03:27:17;;;;;;;8.73;4.72;;;;;;;;;;5054659;28;20041;-74
2023/03/16 03:29:44;;;;;;;8.93;4.47;;;;;;;;;;5068097;28;20045;-74
2023/03/16 03:32:10;;;;;;;9.55;4.32;;;;;;;;;;5054355;28;20488;-75
2023/03/16 03:34:37;;;;;;;9.23;4.35;;;;;;;;;;5068708;28;20048;-75
2023/03/16 03:37:03;;;;;;;9.32;4.50;;;;;;;;;;5052654;28;20052;-75
2023/03/16 03:39:29;;;;;;;8.50;3.97;;;;;;;;;;5050422;28;20033;-75
2023/03/16 03:41:55;;;;;;;9.27;4.50;;;;;;;;;;5067044;28;20095;-75
2023/03/16 03:44:21;;;;;;;9.25;4.47;;;;;;;;;;5054245;28;20036;-74
2023/03/16 03:46:48;;;;;;;7.38;4.40;;;;;;;;;;5070559;28;20055;-75
2023/03/16 03:49:14;;;;;;;6.47;4.10;;;;;;;;;;5036950;28;20056;-75
2023/03/16 03:51:40;;;;;;;11.10;4.60;;;;;;;;;;5054500;28;20068;-75
2023/03/16 03:54:06;;;;;;;7.90;4.00;;;;;;;;;;5065256;28;20464;-74
2023/03/16 03:56:32;;;;;;;9.18;4.57;;;;;;;;;;5044663;28;20059;-74
2023/03/16 03:58:58;;;;;;;6.50;4.22;;;;;;;;;;5065409;28;20139;-75
2023/03/16 04:01:24;;;;;;;8.73;4.18;;;;;;;;;;5055603;28;20076;-75
2023/03/16 04:03:53;;;;;;;9.18;4.60;;;;;;;;;;5052247;28;20141;-75
2023/03/16 04:06:19;;;;;;;7.80;4.20;;;;;;;;;;5054785;28;20080;-75
2023/03/16 04:08:45;;;;;;;8.02;4.50;;;;;;;;;;5061898;28;20394;-75
2023/03/16 04:11:11;;;;;;;7.95;4.20;;;;;;;;;;5053646;28;20131;-74
2023/03/16 04:13:38;;;;;;;9.18;4.32;;;;;;;;;;5058951;28;20136;-74
2023/03/16 04:16:04;;;;;;;10.80;4.22;;;;;;;;;;5063252;28;20504;-75
2023/03/16 04:18:40;;;;;;;8.68;4.63;;;;;;;;;;5058530;28;20412;-74
2023/03/16 04:21:06;;;;;;;;;;;;;;;;;;5069936;28;20041;-74
2023/03/16 04:23:32;;;;;;;8.18;3.65;;;;;;;;;;5056215;28;19981;-75
2023/03/16 04:25:58;;;;;;;10.40;4.22;;;;;;;;;;5047637;28;20037;-75
2023/03/16 04:28:25;;;;;;;7.53;4.22;;;;;;;;;;5061925;28;20048;-75
2023/03/16 04:30:55;;;;;;;7.80;4.10;;;;;;;;;;5025048;28;20068;-74
2023/03/16 04:33:21;;;;;;;9.00;4.25;;;;;;;;;;5041720;28;20070;-74
2023/03/16 04:35:48;;;;;;;7.80;4.00;;;;;;;;;;5055295;28;20087;-75
2023/03/16 04:38:14;;;;;;;7.82;4.25;;;;;;;;;;5045319;28;20510;-75
2023/03/16 04:40:40;;;;;;;9.02;4.30;;;;;;;;;;5034369;28;20041;-75
2023/03/16 04:43:06;;;;;;;8.32;4.28;;;;;;;;;;5056629;28;20064;-74
2023/03/16 04:45:32;;;;;;;7.65;4.38;;;;;;;;;;5052456;28;20047;-75
2023/03/16 04:47:58;;;;;;;7.95;4.55;;;;;;;;;;5053585;28;20147;-75
2023/03/16 04:50:24;;;;;;;9.55;4.22;;;;;;;;;;5060171;28;20126;-75
2023/03/16 04:52:50;;;;;;;9.52;4.43;;;;;;;;;;5057943;28;20044;-75
2023/03/16 04:55:17;;;;;;;9.20;4.28;;;;;;;;;;5061318;28;20075;-75
2023/03/16 04:57:43;;;;;;;6.15;4.20;;;;;;;;;;5057242;28;20405;-75
2023/03/16 05:00:17;;;;;;;8.48;4.50;;;;;;;;;;5064424;28;20033;-75
2023/03/16 05:02:44;;;;;;;9.50;4.30;;;;;;;;;;5065863;28;20044;-75
2023/03/16 05:05:10;;;;;;;6.78;4.07;;;;;;;;;;5054083;28;20040;-75
2023/03/16 05:07:36;;;;;;;8.13;4.32;;;;;;;;;;5037161;28;20522;-75
2023/03/16 05:10:03;;;;;;;10.82;4.68;;;;;;;;;;5052022;28;20498;-75
2023/03/16 05:12:29;;;;;;;11.60;5.03;;;;;;;;;;5066914;28;20072;-75
2023/03/16 05:14:56;;;;;;;9.60;4.53;;;;;;;;;;5059272;28;20118;-75
2023/03/16 05:17:22;;;;;;;8.05;4.40;;;;;;;;;;5035034;28;20071;-75
2023/03/16 05:19:48;;;;;;;8.88;4.60;;;;;;;;;;5052524;28;20044;-75
2023/03/16 05:22:14;;;;;;;8.48;4.88;;;;;;;;;;5050249;28;20048;-75
2023/03/16 05:24:40;;;;;;;9.13;4.72;;;;;;;;;;5064425;28;20068;-75
2023/03/16 05:27:06;;;;;;;8.38;4.80;;;;;;;;;;5062079;28;20409;-75
2023/03/16 05:29:33;;;;;;;12.07;4.80;;;;;;;;;;5049135;28;20055;-75
2023/03/16 05:31:59;;;;;;;9.18;4.40;;;;;;;;;;5054147;28;20468;-75
2023/03/16 05:34:26;;;;;;;9.93;4.50;;;;;;;;;;5065177;28;20033;-75
2023/03/16 05:36:52;;;;;;;12.30;4.53;;;;;;;;;;5066768;28;20045;-75
2023/03/16 05:39:18;;;;;;;8.50;4.80;;;;;;;;;;5043203;28;20064;-74
2023/03/16 05:41:44;;;;;;;7.97;4.75;;;;;;;;;;5056546;28;20491;-75
2023/03/16 05:44:10;;;;;;;10.02;5.25;;;;;;;;;;5071631;28;20033;-75
2023/03/16 05:46:36;;;;;;;8.60;4.80;;;;;;;;;;5059847;28;20345;-75
2023/03/16 05:49:03;;;;;;;8.05;4.70;;;;;;;;;;5074430;28;20433;-75
2023/03/16 05:51:29;;;;;;;9.52;4.90;;;;;;;;;;5073611;28;20532;-74
2023/03/16 05:53:55;;;;;;;8.88;4.65;;;;;;;;;;5060616;28;20059;-75
2023/03/16 05:56:25;;;;;;;8.07;4.90;;;;;;;;;;5071787;28;20102;-75
2023/03/16 05:58:52;;;;;;;8.25;4.80;;;;;;;;;;5067625;28;20110;-75
2023/03/16 06:01:19;;;;;;;8.38;5.00;;;;;;;;;;5041851;28;20405;-75
2023/03/16 06:03:45;;;;;;;9.02;4.95;;;;;;;;;;5067372;28;20037;-75
2023/03/16 06:06:11;;;;;;;10.05;4.63;;;;;;;;;;5070691;28;20044;-75
2023/03/16 06:08:37;;;;;;;9.35;5.00;;;;;;;;;;5055569;28;20045;-75
2023/03/16 06:11:04;;;;;;;11.60;5.25;;;;;;;;;;5062205;28;20127;-75
2023/03/16 06:13:30;;;;;;;11.63;5.03;;;;;;;;;;5048735;28;20086;-75
2023/03/16 06:15:56;;;;;;;10.07;5.07;;;;;;;;;;5055445;28;20049;-75
2023/03/16 06:18:22;;;;;;;9.15;5.20;;;;;;;;;;5045927;28;20091;-74
2023/03/16 06:20:48;;;;;;;8.00;4.90;;;;;;;;;;5060834;28;20196;-75
2023/03/16 06:23:14;;;;;;;8.65;4.90;;;;;;;;;;5068747;28;20052;-74
2023/03/16 06:25:40;;;;;;;7.80;4.82;;;;;;;;;;5061428;28;20167;-75
2023/03/16 06:28:06;;;;;;;7.40;5.30;;;;;;;;;;5056302;28;20052;-74
2023/03/16 06:30:33;;;;;;;10.07;5.10;;;;;;;;;;5065614;28;20048;-75
2023/03/16 06:32:59;;;;;;;8.18;5.30;;;;;;;;;;5063351;28;20045;-75
2023/03/16 06:35:25;;;;;;;9.18;4.90;;;;;;;;;;5055537;28;20120;-75
2023/03/16 06:37:51;;;;;;;8.20;5.05;;;;;;;;;;5046212;28;20052;-75
2023/03/16 06:40:17;;;;;;;8.55;5.30;;;;;;;;;;5056363;28;20053;-74
2023/03/16 06:42:43;;;;;;;8.38;5.05;;;;;;;;;;5039561;28;20052;-75
2023/03/16 06:45:10;;;;;;;7.22;4.80;;;;;;;;;;5074371;28;20044;-75
2023/03/16 06:47:36;;;;;;;8.00;4.65;;;;;;;;;;5072312;28;20040;-75
2023/03/16 06:50:03;;;;;;;8.02;4.60;;;;;;;;;;5055911;28;20175;-75
2023/03/16 06:52:30;;;;;;;11.73;5.00;;;;;;;;;;5073862;28;20102;-75
2023/03/16 06:54:57;;;;;;;8.40;4.50;;;;;;;;;;5074181;28;20163;-75
2023/03/16 06:57:23;;;;;;;6.40;4.15;;;;;;;;;;5051469;28;20045;-76
2023/03/16 06:59:49;;;;;;;8.93;4.38;;;;;;;;;;5037250;28;20041;-75
2023/03/16 07:02:16;;;;;;;11.50;4.63;;;;;;;;;;5054244;28;20041;-75
2023/03/16 07:04:43;;;;;;;10.13;4.82;;;;;;;;;;5067923;28;20178;-76
2023/03/16 07:07:10;;;;;;;8.60;4.60;;;;;;;;;;5066988;28;20041;-76
2023/03/16 07:09:36;;;;;;;7.80;4.82;;;;;;;;;;5067719;28;20075;-75
2023/03/16 07:12:03;;;;;;;10.43;4.72;;;;;;;;;;5054280;28;20060;-76
2023/03/16 07:14:29;;;;;;;7.55;4.63;;;;;;;;;;5053532;28;20047;-76
2023/03/16 07:16:55;;;;;;;11.27;4.38;;;;;;;;;;5054587;28;20049;-75
2023/03/16 07:19:21;;;;;;;9.13;4.38;;;;;;;;;;5068760;28;20051;-75
2023/03/16 07:21:48;;;;;;;12.85;4.60;;;;;;;;;;5056654;28;20048;-75
2023/03/16 07:24:14;;;;;;;9.00;4.30;;;;;;;;;;5034744;28;20493;-76
2023/03/16 07:26:42;;;;;;;10.95;4.45;;;;;;;;;;5058812;28;20119;-75
2023/03/16 07:29:08;;;;;;;7.85;4.47;;;;;;;;;;5041126;28;20525;-75
2023/03/16 07:31:35;;;;;;;13.60;4.88;;;;;;;;;;5054034;28;20045;-76
2023/03/16 07:34:01;;;;;;;7.53;4.63;;;;;;;;;;5055263;28;20333;-76
2023/03/16 07:36:31;;;;;;;10.63;4.65;;;;;;;;;;5073318;28;20091;-77
2023/03/16 07:38:57;;;;;;;11.02;4.90;;;;;;;;;;5051626;28;20447;-76
2023/03/16 07:41:24;;;;;;;8.32;4.32;;;;;;;;;;5052938;28;20052;-75
2023/03/16 07:43:50;;;;;;;10.10;4.70;;;;;;;;;;5052554;28;20041;-76
2023/03/16 07:46:16;;;;;;;6.80;4.07;;;;;;;;;;5061757;28;20047;-76
2023/03/16 07:48:43;;;;;;;7.72;4.32;;;;;;;;;;5093203;28;20052;-76
2023/03/16 07:51:10;;;;;;;8.40;4.60;;;;;;;;;;5093259;28;20036;-75
2023/03/16 07:53:37;;;;;;;8.02;4.13;;;;;;;;;;5074557;28;20067;-76
2023/03/16 07:56:03;;;;;;;8.73;4.93;;;;;;;;;;5068446;28;20504;-76
2023/03/16 07:58:29;;;;;;;9.50;4.32;;;;;;;;;;5067948;28;20080;-76
2023/03/16 08:00:58;;;;;;;10.10;4.32;;;;;;;;;;5052616;28;20069;-76
2023/03/16 08:03:25;;;;;;;8.63;4.15;;;;;;;;;;5066923;28;20036;-76
2023/03/16 08:05:52;;;;;;;8.88;4.30;;;;;;;;;;5067411;28;20382;-76
2023/03/16 08:08:19;;;;;;;7.72;4.50;;;;;;;;;;5051311;28;20119;-76
2023/03/16 08:10:46;;;;;;;10.48;4.53;;;;;;;;;;5049155;28;20088;-76
2023/03/16 08:13:12;;;;;;;7.47;4.50;;;;;;;;;;5052423;28;20052;-76
2023/03/16 08:15:38;;;;;;;6.93;4.30;;;;;;;;;;5067475;28;20040;-75
2023/03/16 08:18:06;;;;;;;10.85;4.55;;;;;;;;;;5066891;28;20048;-75
2023/03/16 08:20:32;;;;;;;10.32;4.57;;;;;;;;;;5051337;28;20131;-75
2023/03/16 08:22:58;;;;;;;7.45;4.55;;;;;;;;;;5065846;28;20040;-74
2023/03/16 08:25:25;;;;;;;7.40;4.22;;;;;;;;;;5072130;28;20086;-75
2023/03/16 08:27:52;;;;;;;6.78;4.60;;;;;;;;;;5068092;28;20040;-76
2023/03/16 08:30:18;;;;;;;8.50;4.55;;;;;;;;;;5059258;28;20052;-76
2023/03/16 08:32:45;;;;;;;6.95;4.43;;;;;;;;;;5051746;28;20056;-76
2023/03/16 08:35:12;;;;;;;11.77;5.18;;;;;;;;;;5052227;28;20129;-75
2023/03/16 08:37:39;;;;;;;8.07;4.45;;;;;;;;;;5062405;28;20056;-75
2023/03/16 08:40:09;;;;;;;8.18;4.63;;;;;;;;;;5034194;28;20122;-75
2023/03/16 08:42:37;;;;;;;8.85;4.80;;;;;;;;;;5052174;28;20049;-75
2023/03/16 08:45:08;;;;;;;10.65;4.93;;;;;;;;;;5033957;28;20056;-75
2023/03/16 08:47:34;;;;;;;7.38;4.60;;;;;;;;;;5034062;28;20045;-75
2023/03/16 08:50:01;;;;;;;7.78;4.63;;;;;;;;;;5033628;28;20053;-75
2023/03/16 08:52:27;;;;;;;7.15;4.18;;;;;;;;;;5052000;28;20090;-75
2023/03/16 08:54:53;;;;;;;9.38;4.50;;;;;;;;;;5017102;28;20072;-76
2023/03/16 08:57:20;;;;;;;7.13;4.47;;;;;;;;;;5016260;28;20064;-75
2023/03/16 08:59:46;;;;;;;9.00;4.70;;;;;;;;;;5032781;28;20066;-75
2023/03/16 09:02:13;;;;;;;10.65;5.20;;;;;;;;;;5034229;28;20045;-75
2023/03/16 09:04:39;;;;;;;7.28;4.68;;;;;;;;;;5050598;28;20045;-75
2023/03/16 09:07:05;;;;;;;7.97;4.47;;;;;;;;;;5034059;28;20127;-75
2023/03/16 09:09:33;;;;;;;8.55;5.00;;;;;;;;;;5051425;28;20129;-76
2023/03/16 09:11:59;;;;;;;10.70;4.85;;;;;;;;;;5032475;28;20124;-76
2023/03/16 09:14:25;;;;;;;8.27;4.88;;;;;;;;;;5052231;28;20043;-78
2023/03/16 09:16:51;;;;;;;9.52;4.90;;;;;;;;;;5037971;28;20106;-77
2023/03/16 09:19:17;;;;;;;9.95;5.22;;;;;;;;;;5037967;28;20049;-77
2023/03/16 09:21:44;;;;;;;9.32;5.05;;;;;;;;;;5038106;28;20041;-76
2023/03/16 09:24:11;;;;;;;8.40;4.65;;;;;;;;;;5055304;28;20053;-77
2023/03/16 09:26:38;;;;;;;8.95;5.43;;;;;;;;;;5055817;28;20409;-77
2023/03/16 09:29:05;;;;;;;8.65;5.30;;;;;;;;;;5053371;28;20541;-78
2023/03/16 09:31:32;;;;;;;9.50;5.88;;;;;;;;;;5036755;28;20128;-77
2023/03/16 09:33:58;;;;;;;12.00;6.05;;;;;;;;;;5055395;28;20398;-77
2023/03/16 09:36:24;;;;;;;7.88;5.38;;;;;;;;;;5055575;28;20366;-77
2023/03/16 09:38:50;;;;;;;12.55;6.35;;;;;;;;;;5054884;28;20045;-77
2023/03/16 09:41:23;;;;;;;8.90;6.05;;;;;;;;;;5037663;28;20466;-77
2023/03/16 09:44:03;;;;;;;9.68;5.65;;;;;;;;;;5055170;28;20179;-77
2023/03/16 09:46:55;;;;;;;9.65;6.38;;;;;;;;;;5037769;28;20048;-76
2023/03/16 09:49:32;;;;;;;10.85;5.70;;;;;;;;;;5052288;28;20142;-76
2023/03/16 09:52:12;;;;;;;9.88;5.63;;;;;;;;;;5037222;28;20072;-77
2023/03/16 09:54:58;;;;;;;10.65;5.45;;;;;;;;;;5055063;28;20098;-77
2023/03/16 09:57:27;;;;;;;9.05;5.35;;;;;;;;;;5037300;28;20052;-76
2023/03/16 09:59:54;;;;;;;10.23;5.57;;;;;;;;;;5037211;28;20447;-77
2023/03/16 10:02:39;;;;;;;9.38;5.28;;;;;;;;;;5037137;28;20094;-77
2023/03/16 10:05:09;;;;;;;9.43;5.60;;;;;;;;;;5036983;28;20048;-76
2023/03/16 10:07:42;;;;;;;9.00;5.47;;;;;;;;;;5036924;28;20142;-76
2023/03/16 10:10:14;;;;;;;10.95;5.63;;;;;;;;;;5035765;28;20049;-76
2023/03/16 10:12:46;;;;;;;8.40;5.40;;;;;;;;;;5034744;28;20048;-76
2023/03/16 10:15:17;;;;;;;8.23;5.70;;;;;;;;;;5035524;28;20041;-75
2023/03/16 10:17:51;;;;;;;11.68;6.50;;;;;;;;;;5053628;28;20079;-76
2023/03/16 10:20:19;;;;;;;12.35;6.30;;;;;;;;;;5019328;28;20045;-75
2023/03/16 10:22:46;;;;;;;14.60;6.82;;;;;;;;;;5053402;28;20503;-76
2023/03/16 10:25:15;;;;;;;8.52;5.53;;;;;;;;;;5052959;28;20064;-76
2023/03/16 10:27:43;;;;;;;10.20;5.78;;;;;;;;;;5035644;28;20167;-75
2023/03/16 10:30:27;;;;;;;8.07;5.55;;;;;;;;;;5044698;28;20045;-76
2023/03/16 10:32:54;;;;;;;8.93;5.82;;;;;;;;;;5021484;28;20045;-75
2023/03/16 10:35:20;;;;;;;10.52;6.15;;;;;;;;;;5053636;28;20431;-75
2023/03/16 10:37:48;;;;;;;10.50;5.70;;;;;;;;;;5062001;28;20068;-75
2023/03/16 10:40:15;;;;;;;9.80;6.20;;;;;;;;;;5055229;28;20052;-76
2023/03/16 10:42:42;;;;;;;15.77;7.00;;;;;;;;;;5036850;28;20133;-76
2023/03/16 10:45:32;;;;;;;9.70;6.15;;;;;;;;;;5038749;28;20059;-76
2023/03/16 10:48:08;;;;;;;11.23;5.93;;;;;;;;;;5037390;28;20049;-76
2023/03/16 10:50:35;;;;;;;11.90;5.72;;;;;;;;;;5072059;28;20436;-76
2023/03/16 10:53:01;;;;;;;9.18;5.80;;;;;;;;;;5067451;28;20056;-76
2023/03/16 10:55:31;;;;;;;10.23;5.80;;;;;;;;;;5053003;28;20049;-73
2023/03/16 10:57:57;;;;;;;11.18;6.60;;;;;;;;;;5062869;28;20059;-76
2023/03/16 11:00:27;;;;;;;9.73;6.28;;;;;;;;;;5051478;28;20041;-77
2023/03/16 11:02:55;;;;;;;11.07;6.35;;;;;;;;;;5034674;28;20084;-77
2023/03/16 11:05:31;;;;;;;9.65;5.80;;;;;;;;;;5065421;28;20046;-77
2023/03/16 11:07:59;;;;;;;9.23;5.40;;;;;;;;;;5054664;28;1082954;-77
2023/03/16 11:10:33;;;;;;;8.10;5.47;;;;;;;;;;5076154;28;20119;-77
2023/03/16 11:13:03;;;;;;;9.35;5.43;;;;;;;;;;5093761;28;20048;-77
2023/03/16 11:15:35;;;;;;;10.02;6.07;;;;;;;;;;5094111;28;20046;-77
2023/03/16 11:18:02;;;;;;;10.35;5.90;;;;;;;;;;5075442;28;20496;-76
2023/03/16 11:20:30;;;;;;;8.40;5.50;;;;;;;;;;5056760;28;20044;-77
2023/03/16 11:22:57;;;;;;;9.55;5.07;;;;;;;;;;5073194;28;20529;-77
2023/03/16 11:25:25;;;;;;;9.80;5.47;;;;;;;;;;5079821;28;20036;-76
2023/03/16 11:27:54;;;;;;;8.52;5.13;;;;;;;;;;5093418;28;20056;-76
2023/03/16 11:30:23;;;;;;;8.57;5.20;;;;;;;;;;5075004;28;20040;-77
2023/03/16 11:32:52;;;;;;;8.70;5.18;;;;;;;;;;5058243;28;20039;-76
2023/03/16 11:35:20;;;;;;;11.98;5.65;;;;;;;;;;5088202;28;20111;-76
2023/03/16 11:38:05;;;;;;;7.30;4.90;;;;;;;;;;5070118;28;20113;-77
2023/03/16 11:40:32;;;;;;;8.65;4.97;;;;;;;;;;5073587;28;20047;-76
2023/03/16 11:43:21;;;;;;;8.45;4.53;;;;;;;;;;5092618;28;20443;-76
2023/03/16 11:46:09;;;;;;;9.82;4.65;;;;;;;;;;5090386;28;20055;-76
2023/03/16 11:48:37;;;;;;;8.23;4.97;;;;;;;;;;5055695;28;20553;-77
2023/03/16 11:51:22;;;;;;;9.05;5.20;;;;;;;;;;5074910;28;20131;-76
2023/03/16 11:53:48;;;;;;;11.15;5.32;;;;;;;;;;5069999;28;20051;-77
2023/03/16 11:56:22;;;;;;;8.40;4.70;;;;;;;;;;5073970;28;20040;-76
2023/03/16 11:59:07;;;;;;;9.18;4.22;;;;;;;;;;5092521;28;20044;-76
2023/03/16 12:01:51;;;;;;;7.38;4.50;;;;;;;;;;5091611;28;20119;-76
2023/03/16 12:04:19;;;;;;;11.00;4.55;;;;;;;;;;5073147;28;20072;-75
2023/03/16 12:07:03;;;;;;;8.00;4.80;;;;;;;;;;5057700;28;20047;-76
2023/03/16 12:09:50;;;;;;;6.72;4.40;;;;;;;;;;5090306;28;20070;-76
2023/03/16 12:12:22;;;;;;;6.88;4.30;;;;;;;;;;5074734;28;20059;-77
2023/03/16 12:15:06;;;;;;;7.35;4.15;;;;;;;;;;5074874;28;20040;-77
2023/03/16 12:17:36;;;;;;;7.50;3.90;;;;;;;;;;5092702;28;20043;-77
2023/03/16 12:20:04;;;;;;;6.55;4.20;;;;;;;;;;5074682;28;20157;-77
2023/03/16 12:22:33;;;;;;;7.68;4.20;;;;;;;;;;5074459;28;20064;-77
2023/03/16 12:25:00;;;;;;;8.80;4.10;;;;;;;;;;5092256;28;20438;-76
2023/03/16 12:27:31;;;;;;;7.68;3.95;;;;;;;;;;5074271;28;20128;-77
2023/03/16 12:30:03;;;;;;;7.60;3.90;;;;;;;;;;5074363;28;20070;-77
2023/03/16 12:32:33;;;;;;;5.82;3.75;;;;;;;;;;5092414;28;20051;-77
2023/03/16 12:34:59;;;;;;;11.35;4.43;;;;;;;;;;5092220;28;20043;-78
2023/03/16 12:37:31;;;;;;;10.85;4.07;;;;;;;;;;5083846;28;20118;-74
2023/03/16 12:40:06;;;;;;;6.10;3.85;;;;;;;;;;5071404;28;20097;-78
2023/03/16 12:42:51;;;;;;;7.03;3.80;;;;;;;;;;5054063;28;20053;-78
2023/03/16 12:45:36;;;;;;;5.88;3.80;;;;;;;;;;5037321;28;20056;-77
2023/03/16 12:48:14;;;;;;;6.55;4.30;;;;;;;;;;5037610;28;20110;-77
2023/03/16 12:50:51;;;;;;;6.78;4.20;;;;;;;;;;5054159;28;20493;-76
2023/03/16 12:53:26;;;;;;;6.78;4.07;;;;;;;;;;5071932;28;20056;-76
2023/03/16 12:55:52;;;;;;;7.20;4.13;;;;;;;;;;5054076;28;20055;-76
2023/03/16 12:58:18;;;;;;;6.90;4.20;;;;;;;;;;5054127;28;20044;-76
2023/03/16 13:00:55;;;;;;;7.68;4.10;;;;;;;;;;5071805;28;20051;-76
2023/03/16 13:03:22;;;;;;;6.53;4.20;;;;;;;;;;5053705;28;20052;-76
2023/03/16 13:05:54;;;;;;;9.68;4.22;;;;;;;;;;5072033;28;20053;-77
2023/03/16 13:08:22;;;;;;;7.63;4.43;;;;;;;;;;5037057;28;20540;-76
2023/03/16 13:11:13;;;;;;;7.13;4.13;;;;;;;;;;5053957;28;20064;-76
2023/03/16 13:13:57;;;;;;;7.45;4.28;;;;;;;;;;5071773;28;20044;-75
2023/03/16 13:16:26;;;;;;;8.32;4.05;;;;;;;;;;5072070;28;20047;-76
2023/03/16 13:18:52;;;;;;;8.18;4.13;;;;;;;;;;5053426;28;20113;-76
2023/03/16 13:21:33;;;;;;;7.43;3.95;;;;;;;;;;5053993;28;20072;-76
2023/03/16 13:24:00;;;;;;;7.75;3.92;;;;;;;;;;5053375;28;20040;-76
2023/03/16 13:26:38;;;;;;;7.35;4.30;;;;;;;;;;5054289;28;20052;-76
2023/03/16 13:29:20;;;;;;;8.18;4.22;;;;;;;;;;5053370;28;20040;-75
2023/03/16 13:31:46;;;;;;;6.78;3.83;;;;;;;;;;5051717;28;20386;-76
2023/03/16 13:34:14;;;;;;;8.25;4.10;;;;;;;;;;5053600;28;20048;-76
2023/03/16 13:36:41;;;;;;;9.15;4.25;;;;;;;;;;5071197;28;20373;-76
2023/03/16 13:39:19;;;;;;;6.72;4.10;;;;;;;;;;5033403;28;20053;-77
2023/03/16 13:41:56;;;;;;;9.02;3.60;;;;;;;;;;5050645;28;20969;-76
2023/03/16 13:44:24;;;;;;;8.63;4.30;;;;;;;;;;5050525;28;20063;-76
2023/03/16 13:46:50;;;;;;;8.82;4.05;;;;;;;;;;5051655;28;20088;-76
2023/03/16 13:49:17;;;;;;;7.80;3.92;;;;;;;;;;5033496;28;20434;-77
2023/03/16 13:51:44;;;;;;;9.00;3.92;;;;;;;;;;5033505;28;20452;-76
2023/03/16 13:54:24;;;;;;;6.63;3.83;;;;;;;;;;5033386;28;20049;-77
2023/03/16 13:56:51;;;;;;;7.38;4.07;;;;;;;;;;5033566;28;20045;-77
2023/03/16 13:59:18;;;;;;;5.45;3.80;;;;;;;;;;5029752;28;20048;-77
2023/03/16 14:01:45;;;;;;;6.38;3.67;;;;;;;;;;5036395;28;20050;-77
2023/03/16 14:04:17;;;;;;;7.75;3.97;;;;;;;;;;5037092;28;20056;-77
2023/03/16 14:06:51;;;;;;;6.13;4.07;;;;;;;;;;5054966;28;20501;-77
2023/03/16 14:09:20;;;;;;;7.90;4.00;;;;;;;;;;5054674;28;20519;-77
2023/03/16 14:11:47;;;;;;;5.45;3.63;;;;;;;;;;5037021;28;20079;-77
2023/03/16 14:14:22;;;;;;;7.22;3.95;;;;;;;;;;5054768;28;20562;-77
2023/03/16 14:16:48;;;;;;;6.65;3.75;;;;;;;;;;5054909;28;20416;-77
2023/03/16 14:19:21;;;;;;;8.57;3.90;;;;;;;;;;5054729;28;20044;-77
2023/03/16 14:21:48;;;;;;;7.43;4.22;;;;;;;;;;5036251;28;20512;-77
2023/03/16 14:24:24;;;;;;;9.63;3.85;;;;;;;;;;5036185;28;20086;-77
2023/03/16 14:26:50;;;;;;;7.35;3.80;;;;;;;;;;5036943;28;20206;-77
2023/03/16 14:29:23;;;;;;;9.57;4.22;;;;;;;;;;5036254;28;20041;-77
2023/03/16 14:31:49;;;;;;;8.85;4.30;;;;;;;;;;5020297;28;20371;-77
2023/03/16 14:34:21;;;;;;;6.28;3.78;;;;;;;;;;5054195;28;20524;-77
2023/03/16 14:36:48;;;;;;;6.22;3.80;;;;;;;;;;5037489;28;20055;-77
2023/03/16 14:39:18;;;;;;;9.35;4.20;;;;;;;;;;5039567;28;20080;-77
2023/03/16 14:41:48;;;;;;;7.18;4.18;;;;;;;;;;5057480;28;20052;-76
2023/03/16 14:44:29;;;;;;;10.70;4.15;;;;;;;;;;5090867;28;20048;-75
2023/03/16 14:46:56;;;;;;;7.78;4.25;;;;;;;;;;5074864;28;20058;-76
2023/03/16 14:49:26;;;;;;;6.80;3.97;;;;;;;;;;5075563;28;20044;-76